createdAt,value
2022-08-07T00:01:44.588Z,4.30
2022-08-07T00:04:03.506Z,3.08
2022-08-07T00:06:33.539Z,4.18
2022-08-07T00:09:16.260Z,4.65
2022-08-07T00:11:53.832Z,5.00
2022-08-07T00:14:22.109Z,5.10
2022-08-07T00:16:52.357Z,5.45
2022-08-07T00:19:21.520Z,7.60
2022-08-07T00:21:56.078Z,7.47
2022-08-07T00:24:24.405Z,5.10
2022-08-07T00:27:06.107Z,5.40
2022-08-07T00:29:37.110Z,6.68
2022-08-07T00:32:05.996Z,6.53
2022-08-07T00:34:35.481Z,4.15
2022-08-07T00:37:02.746Z,8.55
2022-08-07T00:39:31.958Z,5.05
2022-08-07T00:42:02.470Z,5.03
2022-08-07T00:47:06.427Z,4.70
2022-08-07T00:50:19.216Z,5.07
2022-08-07T00:52:29.493Z,4.43
2022-08-07T00:55:04.679Z,6.45
2022-08-07T00:57:37.024Z,5.30
2022-08-07T01:00:08.542Z,5.00
2022-08-07T01:02:35.639Z,4.90
2022-08-07T01:05:19.262Z,4.78
2022-08-07T01:07:46.761Z,5.32
2022-08-07T01:10:17.132Z,6.22
2022-08-07T01:12:53.171Z,6.15
2022-08-07T01:15:22.331Z,7.93
2022-08-07T01:18:02.944Z,4.88
2022-08-07T01:20:35.208Z,7.78
2022-08-07T01:23:12.410Z,8.20
2022-08-07T01:25:55.584Z,6.00
2022-08-07T01:28:23.794Z,9.23
2022-08-07T01:30:51.499Z,6.20
2022-08-07T01:33:18.696Z,6.05
2022-08-07T01:35:54.558Z,8.90
2022-08-07T01:38:32.170Z,6.78
2022-08-07T01:41:03.537Z,8.05
2022-08-07T01:43:38.017Z,5.78
2022-08-07T01:46:05.798Z,6.65
2022-08-07T01:48:35.471Z,6.65
2022-08-07T01:52:01.227Z,6.83
2022-08-07T01:54:08.510Z,11.07
2022-08-07T01:56:51.821Z,9.00
2022-08-07T01:59:30.832Z,6.93
2022-08-07T02:02:06.215Z,6.70
2022-08-07T02:04:55.725Z,10.98
2022-08-07T02:07:35.891Z,8.23
2022-08-07T02:10:14.561Z,7.90
2022-08-07T02:12:46.507Z,5.95
2022-08-07T02:15:22.877Z,7.05
2022-08-07T02:17:51.772Z,5.90
2022-08-07T02:20:23.810Z,9.75
2022-08-07T02:22:59.896Z,6.70
2022-08-07T02:26:10.242Z,6.22
2022-08-07T02:28:25.645Z,5.85
2022-08-07T02:30:55.877Z,8.48
2022-08-07T02:33:41.844Z,6.85
2022-08-07T02:36:30.032Z,6.47
2022-08-07T02:39:02.693Z,8.07
2022-08-07T02:41:50.747Z,7.80
2022-08-07T02:44:26.796Z,7.00
2022-08-07T02:46:56.338Z,11.02
2022-08-07T02:49:28.819Z,6.47
2022-08-07T02:52:17.339Z,6.25
2022-08-07T02:54:50.644Z,6.18
2022-08-07T02:57:22.144Z,9.70
2022-08-07T03:00:00.868Z,6.07
2022-08-07T03:02:28.145Z,6.72
2022-08-07T03:04:56.476Z,7.45
2022-08-07T03:07:43.163Z,6.25
2022-08-07T03:10:12.104Z,9.50
2022-08-07T03:12:41.817Z,6.65
2022-08-07T03:15:10.620Z,6.90
2022-08-07T03:17:52.892Z,6.88
2022-08-07T03:20:21.063Z,11.32
2022-08-07T03:22:50.317Z,10.98
2022-08-07T03:25:20.943Z,9.70
2022-08-07T03:28:08.945Z,7.70
2022-08-07T03:30:36.240Z,9.75
2022-08-07T03:33:05.249Z,8.05
2022-08-07T03:35:43.502Z,7.65
2022-08-07T03:38:13.343Z,7.95
2022-08-07T03:40:44.120Z,9.23
2022-08-07T03:43:14.787Z,7.28
2022-08-07T03:45:43.495Z,8.32
2022-08-07T03:48:14.240Z,10.68
2022-08-07T03:50:43.177Z,9.38
2022-08-07T03:53:18.844Z,13.80
2022-08-07T03:56:04.292Z,9.07
2022-08-07T03:59:08.992Z,9.27
2022-08-07T04:01:22.414Z,9.75
2022-08-07T04:03:55.400Z,10.10
2022-08-07T04:06:37.906Z,10.70
2022-08-07T04:09:06.351Z,15.43
2022-08-07T04:12:27.062Z,12.00
2022-08-07T04:14:38.441Z,13.77
2022-08-07T04:17:19.979Z,11.13
2022-08-07T04:19:57.399Z,14.57
2022-08-07T04:22:29.378Z,9.93
2022-08-07T04:25:01.049Z,11.10
2022-08-07T04:27:35.882Z,10.68
2022-08-07T04:30:11.782Z,11.85
2022-08-07T04:32:58.253Z,14.40
2022-08-07T04:35:25.470Z,11.18
2022-08-07T04:38:02.751Z,16.98
2022-08-07T04:40:34.293Z,12.50
2022-08-07T04:43:03.476Z,11.07
2022-08-07T04:45:57.427Z,12.25
2022-08-07T04:48:44.639Z,11.45
2022-08-07T04:54:05.381Z,10.85
2022-08-07T04:58:15.262Z,13.80
2022-08-07T05:00:18.696Z,15.18
2022-08-07T05:02:59.005Z,13.43
2022-08-07T05:05:53.512Z,12.48
2022-08-07T05:08:45.400Z,13.80
2022-08-07T05:11:26.374Z,13.88
2022-08-07T05:14:52.324Z,10.65
2022-08-07T05:17:51.522Z,10.90
2022-08-07T05:20:17.044Z,10.02
2022-08-07T05:22:47.113Z,9.75
2022-08-07T05:25:25.957Z,10.60
2022-08-07T05:28:20.085Z,11.43
2022-08-07T05:30:50.030Z,9.20
2022-08-07T05:33:21.344Z,9.13
2022-08-07T05:35:51.620Z,9.80
2022-08-07T05:38:59.824Z,11.63
2022-08-07T05:41:15.776Z,6.68
2022-08-07T05:44:12.489Z,7.43
2022-08-07T05:46:38.752Z,7.55
2022-08-07T05:49:12.513Z,7.22
2022-08-07T05:51:42.280Z,7.13
2022-08-07T05:54:30.208Z,6.70
2022-08-07T05:56:57.351Z,7.78
2022-08-07T05:59:28.619Z,7.97
2022-08-07T06:02:14.330Z,7.85
2022-08-07T06:04:51.413Z,7.07
2022-08-07T06:07:42.442Z,6.70
2022-08-07T06:10:11.384Z,7.53
2022-08-07T06:12:42.270Z,6.18
2022-08-07T06:15:15.972Z,6.20
2022-08-07T06:17:53.325Z,6.57
2022-08-07T06:20:25.648Z,6.28
2022-08-07T06:23:46.706Z,9.23
2022-08-07T06:25:58.344Z,10.30
2022-08-07T06:28:27.542Z,5.93
2022-08-07T06:30:55.709Z,7.55
2022-08-07T06:33:24.361Z,10.07
2022-08-07T06:36:06.643Z,7.78
2022-08-07T06:38:38.484Z,5.63
2022-08-07T06:41:15.720Z,6.57
2022-08-07T06:44:01.781Z,7.35
2022-08-07T06:46:37.543Z,6.35
2022-08-07T06:49:06.953Z,6.03
2022-08-07T06:51:49.592Z,8.10
2022-08-07T06:55:33.101Z,8.02
2022-08-07T06:57:07.019Z,7.20
2022-08-07T07:00:12.465Z,7.57
2022-08-07T07:02:48.597Z,10.73
2022-08-07T07:05:13.269Z,6.40
2022-08-07T07:08:06.360Z,6.05
2022-08-07T07:10:35.429Z,6.65
2022-08-07T07:13:14.661Z,6.10
2022-08-07T07:15:51.640Z,6.47
2022-08-07T07:18:47.242Z,6.38
2022-08-07T07:21:27.299Z,6.60
2022-08-07T07:24:13.602Z,7.80
2022-08-07T07:26:51.678Z,12.25
2022-08-07T07:29:56.559Z,6.38
2022-08-07T07:32:13.865Z,8.57
2022-08-07T07:34:45.305Z,5.20
2022-08-07T07:37:21.739Z,8.82
2022-08-07T07:40:10.396Z,5.93
2022-08-07T07:42:50.908Z,5.88
2022-08-07T07:46:38.576Z,10.43
2022-08-07T07:48:24.040Z,5.70
2022-08-07T07:51:02.658Z,6.32
2022-08-07T07:56:13.850Z,5.07
2022-08-07T07:58:44.154Z,5.45
2022-08-07T08:02:01.572Z,5.05
2022-08-07T08:04:09.895Z,9.23
2022-08-07T08:06:40.785Z,5.65
2022-08-07T08:09:20.688Z,5.35
2022-08-07T08:12:01.796Z,4.63
2022-08-07T08:14:36.420Z,4.72
2022-08-07T08:17:32.443Z,4.13
2022-08-07T08:20:18.657Z,3.75
2022-08-07T08:23:20.554Z,8.40
2022-08-07T08:26:10.561Z,5.65
2022-08-07T08:28:45.381Z,4.95
2022-08-07T08:31:22.797Z,4.38
2022-08-07T08:33:59.008Z,3.95
2022-08-07T08:36:29.694Z,4.70
2022-08-07T08:39:00.848Z,6.90
2022-08-07T08:41:58.635Z,6.20
2022-08-07T08:44:31.398Z,3.70
2022-08-07T08:47:09.844Z,3.47
2022-08-07T08:50:04.734Z,3.10
2022-08-07T08:52:40.739Z,3.00
2022-08-07T08:55:54.630Z,7.03
2022-08-07T08:58:43.836Z,3.55
2022-08-07T09:01:22.585Z,5.57
2022-08-07T09:04:13.516Z,4.72
2022-08-07T09:06:55.806Z,4.07
2022-08-07T09:12:31.765Z,3.05
2022-08-07T09:16:22.086Z,7.78
2022-08-07T09:18:25.960Z,3.92
2022-08-07T09:22:09.813Z,3.10
2022-08-07T09:25:14.863Z,4.75
2022-08-07T09:28:05.232Z,3.47
2022-08-07T09:30:46.275Z,2.58
2022-08-07T09:33:52.714Z,2.63
2022-08-07T09:36:37.510Z,2.95
2022-08-07T09:40:01.954Z,2.95
2022-08-07T09:42:51.325Z,3.80
2022-08-07T09:47:24.756Z,2.97
2022-08-07T09:50:02.196Z,2.40
2022-08-07T09:52:33.335Z,6.03
2022-08-07T09:55:29.948Z,6.40
2022-08-07T09:58:31.993Z,6.63
2022-08-07T10:01:51.843Z,4.45
2022-08-07T10:04:55.027Z,2.80
2022-08-07T10:07:53.726Z,5.03
2022-08-07T10:11:17.233Z,2.33
2022-08-07T10:14:11.250Z,2.47
2022-08-07T10:17:20.981Z,2.53
2022-08-07T10:20:00.911Z,2.38
2022-08-07T10:23:00.861Z,4.22
2022-08-07T10:29:22.645Z,6.43
2022-08-07T10:32:36.421Z,8.48
2022-08-07T10:35:56.446Z,3.13
2022-08-07T10:38:42.095Z,2.15
2022-08-07T10:41:53.052Z,2.08
2022-08-07T10:44:45.398Z,2.10
2022-08-07T10:47:53.074Z,2.20
2022-08-07T10:50:29.729Z,3.58
2022-08-07T10:57:34.327Z,2.45
2022-08-07T11:00:57.494Z,7.28
2022-08-07T11:03:52.947Z,3.13
2022-08-07T11:07:01.318Z,4.90
2022-08-07T11:10:09.345Z,6.70
2022-08-07T11:12:49.067Z,3.58
2022-08-07T11:15:32.004Z,2.17
2022-08-07T11:18:39.361Z,3.35
2022-08-07T11:21:43.306Z,3.72
2022-08-07T11:24:38.100Z,4.72
2022-08-07T11:27:33.473Z,2.08
2022-08-07T11:30:39.153Z,4.03
2022-08-07T11:33:53.810Z,3.03
2022-08-07T11:36:13.193Z,3.05
2022-08-07T11:38:50.676Z,4.32
2022-08-07T11:41:59.864Z,4.05
2022-08-07T11:44:52.701Z,2.00
2022-08-07T11:47:59.167Z,2.03
2022-08-07T11:50:56.370Z,2.53
2022-08-07T11:56:52.346Z,3.60
2022-08-07T12:00:11.340Z,1.92
2022-08-07T12:02:55.707Z,2.85
2022-08-07T12:05:47.396Z,2.05
2022-08-07T12:08:25.725Z,4.72
2022-08-07T12:11:25.497Z,1.80
2022-08-07T12:14:09.004Z,4.70
2022-08-07T12:16:45.042Z,3.65
2022-08-07T12:19:56.816Z,2.08
2022-08-07T12:22:58.779Z,3.97
2022-08-07T12:26:03.422Z,2.63
2022-08-07T12:28:58.398Z,4.07
2022-08-07T12:31:53.248Z,5.38
2022-08-07T12:34:28.086Z,3.17
2022-08-07T12:37:00.922Z,1.48
2022-08-07T12:39:43.981Z,1.70
2022-08-07T12:42:27.141Z,2.00
2022-08-07T12:44:58.193Z,1.70
2022-08-07T12:47:46.108Z,1.73
2022-08-07T12:50:33.922Z,2.53
2022-08-07T12:53:18.997Z,4.35
2022-08-07T12:56:14.250Z,3.25
2022-08-07T12:58:46.785Z,1.40
2022-08-07T13:01:28.076Z,1.85
2022-08-07T13:04:36.920Z,1.60
2022-08-07T13:08:12.137Z,1.38
2022-08-07T13:10:37.772Z,6.40
2022-08-07T13:13:10.962Z,3.78
2022-08-07T13:15:58.990Z,1.40
2022-08-07T13:18:49.101Z,3.00
2022-08-07T13:21:51.152Z,3.25
2022-08-07T13:24:34.805Z,3.40
2022-08-07T13:27:14.732Z,6.05
2022-08-07T13:29:59.333Z,3.65
2022-08-07T13:32:48.919Z,2.80
2022-08-07T13:36:00.361Z,1.27
2022-08-07T13:38:48.943Z,3.28
2022-08-07T13:41:32.088Z,2.05
2022-08-07T13:44:05.123Z,3.58
2022-08-07T13:46:49.417Z,1.77
2022-08-07T13:50:33.010Z,3.67
2022-08-07T13:52:31.780Z,2.22
2022-08-07T13:54:59.273Z,2.15
2022-08-07T13:57:38.247Z,1.47
2022-08-07T14:00:26.135Z,1.48
2022-08-07T14:02:57.583Z,1.05
2022-08-07T14:05:37.311Z,4.65
2022-08-07T14:08:07.981Z,1.50
2022-08-07T14:10:42.363Z,1.60
2022-08-07T14:13:16.593Z,1.23
2022-08-07T14:15:51.921Z,3.25
2022-08-07T14:18:40.103Z,1.45
2022-08-07T14:22:03.205Z,2.20
2022-08-07T14:24:28.162Z,1.20
2022-08-07T14:28:09.507Z,1.65
2022-08-07T14:30:05.113Z,3.53
2022-08-07T14:32:58.378Z,3.63
2022-08-07T14:35:45.053Z,2.58
2022-08-07T14:38:26.600Z,1.13
2022-08-07T14:41:04.199Z,2.55
2022-08-07T14:43:57.300Z,3.47
2022-08-07T14:46:30.648Z,2.05
2022-08-07T14:49:17.368Z,1.40
2022-08-07T14:54:43.190Z,3.25
2022-08-07T15:00:03.301Z,2.38
2022-08-07T15:02:34.510Z,1.05
2022-08-07T15:05:03.049Z,0.93
2022-08-07T15:07:51.381Z,1.70
2022-08-07T15:13:18.052Z,1.35
2022-08-07T15:15:53.459Z,1.48
2022-08-07T15:18:33.610Z,2.13
2022-08-07T15:21:08.266Z,2.50
2022-08-07T15:25:15.513Z,2.15
2022-08-07T15:26:57.215Z,6.97
2022-08-07T15:30:09.384Z,8.68
2022-08-07T15:32:39.386Z,8.20
2022-08-07T15:35:12.449Z,1.35
2022-08-07T15:40:34.147Z,2.25
2022-08-07T15:43:10.479Z,1.08
2022-08-07T15:46:04.489Z,1.13
2022-08-07T15:54:18.126Z,2.10
2022-08-07T15:56:48.202Z,5.63
2022-08-07T15:59:17.340Z,1.00
2022-08-07T16:02:01.899Z,3.63
2022-08-07T16:04:32.134Z,0.73
2022-08-07T16:07:04.767Z,2.47
2022-08-07T16:09:59.209Z,2.88
2022-08-07T16:13:01.156Z,2.53
2022-08-07T16:15:57.644Z,1.85
2022-08-07T16:19:04.041Z,2.00
2022-08-07T16:22:05.138Z,4.63
2022-08-07T16:24:52.454Z,3.00
2022-08-07T16:27:40.417Z,1.20
2022-08-07T16:30:29.812Z,2.15
2022-08-07T16:34:02.437Z,1.00
2022-08-07T16:36:30.958Z,1.38
2022-08-07T16:39:20.943Z,1.25
2022-08-07T16:42:25.249Z,1.17
2022-08-07T16:45:23.309Z,2.70
2022-08-07T16:48:04.355Z,5.57
2022-08-07T16:51:20.459Z,1.67
2022-08-07T16:54:06.132Z,1.35
2022-08-07T16:56:49.257Z,2.25
2022-08-07T16:59:19.914Z,3.55
2022-08-07T17:02:04.864Z,1.52
2022-08-07T17:04:58.605Z,1.70
2022-08-07T17:10:39.261Z,2.63
2022-08-07T17:13:40.395Z,4.75
2022-08-07T17:16:31.566Z,2.28
2022-08-07T17:18:58.176Z,1.95
2022-08-07T17:21:28.924Z,2.35
2022-08-07T17:24:27.462Z,4.15
2022-08-07T17:27:32.634Z,2.00
2022-08-07T17:30:14.387Z,1.85
2022-08-07T17:33:05.063Z,3.75
2022-08-07T17:35:55.893Z,3.28
2022-08-07T17:38:57.039Z,1.48
2022-08-07T17:42:02.700Z,3.67
2022-08-07T17:44:50.213Z,3.17
2022-08-07T17:48:01.391Z,3.22
2022-08-07T17:50:42.269Z,3.20
2022-08-07T17:54:00.627Z,5.15
2022-08-07T17:56:32.786Z,4.93
2022-08-07T17:59:21.758Z,2.80
2022-08-07T18:02:14.765Z,3.35
2022-08-07T18:04:51.542Z,3.05
2022-08-07T18:07:34.145Z,3.15
2022-08-07T18:10:32.414Z,4.22
2022-08-07T18:13:15.523Z,2.58
2022-08-07T18:16:09.690Z,3.92
2022-08-07T18:21:04.624Z,4.57
2022-08-07T18:22:15.152Z,5.07
2022-08-07T18:25:19.088Z,3.45
2022-08-07T18:28:35.434Z,7.30
2022-08-07T18:31:18.772Z,2.88
2022-08-07T18:34:40.952Z,5.15
2022-08-07T18:38:56.220Z,5.20
2022-08-07T18:40:43.958Z,5.22
2022-08-07T18:43:36.902Z,3.20
2022-08-07T18:46:43.204Z,7.07
2022-08-07T18:50:19.686Z,7.45
2022-08-07T18:53:22.064Z,5.20
2022-08-07T18:56:30.670Z,4.60
2022-08-07T18:59:47.609Z,6.80
2022-08-07T19:02:42.339Z,5.10
2022-08-07T19:06:03.752Z,3.15
2022-08-07T19:08:37.087Z,5.03
2022-08-07T19:11:35.984Z,5.63
2022-08-07T19:14:51.054Z,3.53
2022-08-07T19:17:59.034Z,3.45
2022-08-07T19:21:09.188Z,4.95
2022-08-07T19:23:59.111Z,3.53
2022-08-07T19:26:28.604Z,5.00
2022-08-07T19:30:57.339Z,4.03
2022-08-07T19:32:18.819Z,5.70
2022-08-07T19:35:11.561Z,5.63
2022-08-07T19:37:56.412Z,5.10
2022-08-07T19:40:49.411Z,2.85
2022-08-07T19:43:52.117Z,5.15
2022-08-07T19:46:35.937Z,4.75
2022-08-07T19:49:12.419Z,4.63
2022-08-07T19:51:53.078Z,11.00
2022-08-07T19:54:44.047Z,2.58
2022-08-07T19:58:12.917Z,4.00
2022-08-07T20:00:53.918Z,4.85
2022-08-07T20:03:35.752Z,5.85
2022-08-07T20:06:15.432Z,7.22
2022-08-07T20:09:08.084Z,5.90
2022-08-07T20:12:22.330Z,7.10
2022-08-07T20:14:35.129Z,5.80
2022-08-07T20:17:05.669Z,7.18
2022-08-07T20:19:47.553Z,6.82
2022-08-07T20:22:29.257Z,9.63
2022-08-07T20:25:12.910Z,7.75
2022-08-07T20:27:54.299Z,4.15
2022-08-07T20:30:31.584Z,7.68
2022-08-07T20:32:59.811Z,5.05
2022-08-07T20:35:54.471Z,4.47
2022-08-07T20:38:28.783Z,3.97
2022-08-07T20:40:59.421Z,5.75
2022-08-07T20:43:32.848Z,6.97
2022-08-07T20:46:27.062Z,8.18
2022-08-07T20:48:49.585Z,5.10
2022-08-07T20:51:40.403Z,9.90
2022-08-07T20:54:12.047Z,4.60
2022-08-07T20:56:46.159Z,4.38
2022-08-07T21:00:05.493Z,6.93
2022-08-07T21:02:31.395Z,7.10
2022-08-07T21:07:28.225Z,6.28
2022-08-07T21:10:00.181Z,8.65
2022-08-07T21:12:31.649Z,4.78
2022-08-07T21:15:00.960Z,5.32
2022-08-07T21:18:29.721Z,6.95
2022-08-07T21:20:30.255Z,4.90
2022-08-07T21:23:07.717Z,7.72
2022-08-07T21:25:50.154Z,5.40
2022-08-07T21:28:48.825Z,8.25
2022-08-07T21:32:42.452Z,7.60
2022-08-07T21:35:14.837Z,8.25
2022-08-07T21:37:59.604Z,7.32
2022-08-07T21:40:36.163Z,4.22
2022-08-07T21:43:23.040Z,12.35
2022-08-07T21:46:09.503Z,8.82
2022-08-07T21:49:04.649Z,7.65
2022-08-07T21:52:04.231Z,6.03
2022-08-07T21:54:48.132Z,5.20
2022-08-07T21:57:51.603Z,7.88
2022-08-07T22:00:24.859Z,9.40
2022-08-07T22:03:10.780Z,9.45
2022-08-07T22:05:50.171Z,9.23
2022-08-07T22:10:50.145Z,13.13
2022-08-07T22:13:17.396Z,7.03
2022-08-07T22:16:42.992Z,9.15
2022-08-07T22:19:03.157Z,8.43
2022-08-07T22:22:04.662Z,10.13
2022-08-07T22:24:37.637Z,10.65
2022-08-07T22:27:20.892Z,12.15
2022-08-07T22:30:15.198Z,15.55
2022-08-07T22:33:09.390Z,6.93
2022-08-07T22:35:48.678Z,10.18
2022-08-07T22:38:34.368Z,7.90
2022-08-07T22:41:16.252Z,8.57
2022-08-07T22:43:56.354Z,10.80
2022-08-07T22:47:02.265Z,10.60
2022-08-07T22:49:55.160Z,11.32
2022-08-07T22:52:45.863Z,6.63
2022-08-07T22:55:53.792Z,12.15
2022-08-07T22:58:32.724Z,11.95
2022-08-07T23:01:49.407Z,9.40
2022-08-07T23:04:32.522Z,12.52
2022-08-07T23:07:41.805Z,10.23
2022-08-07T23:10:41.948Z,13.73
2022-08-07T23:13:48.653Z,13.20
2022-08-07T23:16:44.828Z,11.57
2022-08-07T23:19:51.787Z,9.80
2022-08-07T23:22:36.819Z,8.63
2022-08-07T23:25:12.305Z,12.02
2022-08-07T23:28:21.381Z,12.70
2022-08-07T23:31:11.312Z,12.48
2022-08-07T23:34:19.987Z,11.60
2022-08-07T23:37:17.848Z,11.30
2022-08-07T23:39:57.484Z,11.95
2022-08-07T23:42:37.102Z,9.60
2022-08-07T23:45:33.091Z,12.02
2022-08-07T23:48:25.208Z,11.70
2022-08-07T23:53:15.383Z,9.43
2022-08-07T23:54:19.680Z,10.65
2022-08-07T23:57:05.108Z,17.63
